sensor_id;sensor_type;location;lat;lon;timestamp;temperature;humidity
2062;DHT22;11070;51.336;12.340;2022-09-09T00:02:20;15.10;1.00
2062;DHT22;11070;51.336;12.340;2022-09-09T00:05:04;15.10;1.00
2062;DHT22;11070;51.336;12.340;2022-09-09T00:07:51;15.10;1.00
2062;DHT22;11070;51.336;12.340;2022-09-09T00:10:34;15.10;1.00
2062;DHT22;11070;51.336;12.340;2022-09-09T00:15:43;15.10;1.00
2062;DHT22;11070;51.336;12.340;2022-09-09T00:21:18;15.20;1.00
2062;DHT22;11070;51.336;12.340;2022-09-09T00:23:52;15.20;1.00
2062;DHT22;11070;51.336;12.340;2022-09-09T00:26:39;15.20;1.00
2062;DHT22;11070;51.336;12.340;2022-09-09T00:31:37;15.20;1.00
2062;DHT22;11070;51.336;12.340;2022-09-09T00:34:11;15.20;1.00
2062;DHT22;11070;51.336;12.340;2022-09-09T00:36:39;15.10;1.00
2062;DHT22;11070;51.336;12.340;2022-09-09T00:39:05;15.10;1.00
2062;DHT22;11070;51.336;12.340;2022-09-09T00:41:48;15.00;4.00
2062;DHT22;11070;51.336;12.340;2022-09-09T00:50:05;14.80;53.80
2062;DHT22;11070;51.336;12.340;2022-09-09T00:52:53;14.80;72.00
2062;DHT22;11070;51.336;12.340;2022-09-09T00:56:17;14.80;67.70
2062;DHT22;11070;51.336;12.340;2022-09-09T00:59:25;14.70;57.20
2062;DHT22;11070;51.336;12.340;2022-09-09T01:01:53;14.70;64.90
2062;DHT22;11070;51.336;12.340;2022-09-09T01:04:29;14.60;67.50
2062;DHT22;11070;51.336;12.340;2022-09-09T01:07:09;14.60;74.00
2062;DHT22;11070;51.336;12.340;2022-09-09T01:09:58;14.60;76.80
2062;DHT22;11070;51.336;12.340;2022-09-09T01:12:26;14.60;85.80
2062;DHT22;11070;51.336;12.340;2022-09-09T01:15:03;14.50;92.80
2062;DHT22;11070;51.336;12.340;2022-09-09T01:18:17;14.60;96.30
2062;DHT22;11070;51.336;12.340;2022-09-09T01:20:27;14.60;91.20
2062;DHT22;11070;51.336;12.340;2022-09-09T01:28:36;14.60;20.80
2062;DHT22;11070;51.336;12.340;2022-09-09T01:31:05;14.60;16.30
2062;DHT22;11070;51.336;12.340;2022-09-09T01:33:32;14.60;9.30
2062;DHT22;11070;51.336;12.340;2022-09-09T01:36:06;14.60;6.80
2062;DHT22;11070;51.336;12.340;2022-09-09T01:38:34;14.60;5.90
2062;DHT22;11070;51.336;12.340;2022-09-09T01:41:01;14.60;1.00
2062;DHT22;11070;51.336;12.340;2022-09-09T01:43:27;14.60;1.00
2062;DHT22;11070;51.336;12.340;2022-09-09T01:45:56;14.60;1.00
2062;DHT22;11070;51.336;12.340;2022-09-09T01:48:24;14.60;1.00
2062;DHT22;11070;51.336;12.340;2022-09-09T01:50:50;14.60;1.00
2062;DHT22;11070;51.336;12.340;2022-09-09T01:53:17;14.60;4.50
2062;DHT22;11070;51.336;12.340;2022-09-09T01:55:53;14.50;6.80
2062;DHT22;11070;51.336;12.340;2022-09-09T02:04:11;14.50;20.10
2062;DHT22;11070;51.336;12.340;2022-09-09T02:06:41;14.50;34.80
2062;DHT22;11070;51.336;12.340;2022-09-09T02:09:10;14.50;49.00
2062;DHT22;11070;51.336;12.340;2022-09-09T02:11:38;14.50;71.80
2062;DHT22;11070;51.336;12.340;2022-09-09T02:14:12;14.50;96.80
2062;DHT22;11070;51.336;12.340;2022-09-09T02:16:48;14.50;99.90
2062;DHT22;11070;51.336;12.340;2022-09-09T02:19:25;14.50;99.90
2062;DHT22;11070;51.336;12.340;2022-09-09T02:21:55;14.50;99.90
2062;DHT22;11070;51.336;12.340;2022-09-09T02:24:21;14.50;99.90
2062;DHT22;11070;51.336;12.340;2022-09-09T02:26:50;14.50;99.90
2062;DHT22;11070;51.336;12.340;2022-09-09T02:29:31;14.50;99.90
2062;DHT22;11070;51.336;12.340;2022-09-09T02:32:01;14.50;99.90
2062;DHT22;11070;51.336;12.340;2022-09-09T02:34:28;14.50;99.90
2062;DHT22;11070;51.336;12.340;2022-09-09T02:36:57;14.50;84.10
2062;DHT22;11070;51.336;12.340;2022-09-09T02:39:25;14.50;52.50
2062;DHT22;11070;51.336;12.340;2022-09-09T02:41:50;14.50;42.80
2062;DHT22;11070;51.336;12.340;2022-09-09T02:44:18;14.50;42.40
2062;DHT22;11070;51.336;12.340;2022-09-09T02:47:04;14.50;35.80
2062;DHT22;11070;51.336;12.340;2022-09-09T02:58:05;14.50;25.40
2062;DHT22;11070;51.336;12.340;2022-09-09T03:00:33;14.50;31.60
2062;DHT22;11070;51.336;12.340;2022-09-09T03:03:02;14.50;41.40
2062;DHT22;11070;51.336;12.340;2022-09-09T03:05:27;14.50;47.80
2062;DHT22;11070;51.336;12.340;2022-09-09T03:07:53;14.40;56.10
2062;DHT22;11070;51.336;12.340;2022-09-09T03:10:18;14.40;61.30
2062;DHT22;11070;51.336;12.340;2022-09-09T03:12:44;14.40;78.60
2062;DHT22;11070;51.336;12.340;2022-09-09T03:15:10;14.40;75.60
2062;DHT22;11070;51.336;12.340;2022-09-09T03:17:36;14.40;81.40
2062;DHT22;11070;51.336;12.340;2022-09-09T03:20:04;14.40;75.50
2062;DHT22;11070;51.336;12.340;2022-09-09T03:22:30;14.40;63.30
2062;DHT22;11070;51.336;12.340;2022-09-09T03:24:56;14.50;39.30
2062;DHT22;11070;51.336;12.340;2022-09-09T03:27:22;14.50;34.70
2062;DHT22;11070;51.336;12.340;2022-09-09T03:29:47;14.40;38.40
2062;DHT22;11070;51.336;12.340;2022-09-09T03:32:16;14.40;35.90
2062;DHT22;11070;51.336;12.340;2022-09-09T03:34:43;14.40;36.70
2062;DHT22;11070;51.336;12.340;2022-09-09T03:37:08;14.40;43.70
2062;DHT22;11070;51.336;12.340;2022-09-09T03:39:34;14.40;47.60
2062;DHT22;11070;51.336;12.340;2022-09-09T03:42:00;14.30;52.90
2062;DHT22;11070;51.336;12.340;2022-09-09T03:44:29;14.30;54.60
2062;DHT22;11070;51.336;12.340;2022-09-09T03:46:55;14.30;55.30
2062;DHT22;11070;51.336;12.340;2022-09-09T03:49:21;14.30;59.40
2062;DHT22;11070;51.336;12.340;2022-09-09T03:51:47;14.20;75.20
2062;DHT22;11070;51.336;12.340;2022-09-09T03:54:13;14.20;83.00
2062;DHT22;11070;51.336;12.340;2022-09-09T03:56:38;14.20;78.80
2062;DHT22;11070;51.336;12.340;2022-09-09T03:59:06;14.20;85.40
2062;DHT22;11070;51.336;12.340;2022-09-09T04:01:34;14.20;81.40
2062;DHT22;11070;51.336;12.340;2022-09-09T04:04:00;14.20;91.90
2062;DHT22;11070;51.336;12.340;2022-09-09T04:06:27;14.20;93.00
2062;DHT22;11070;51.336;12.340;2022-09-09T04:08:53;14.10;92.30
2062;DHT22;11070;51.336;12.340;2022-09-09T04:11:19;14.10;99.90
2062;DHT22;11070;51.336;12.340;2022-09-09T04:13:45;14.10;99.90
2062;DHT22;11070;51.336;12.340;2022-09-09T04:16:11;14.10;99.90
2062;DHT22;11070;51.336;12.340;2022-09-09T04:18:38;14.10;99.90
2062;DHT22;11070;51.336;12.340;2022-09-09T04:21:04;14.10;99.90
2062;DHT22;11070;51.336;12.340;2022-09-09T04:23:31;14.10;99.90
2062;DHT22;11070;51.336;12.340;2022-09-09T04:25:59;14.00;99.90
2062;DHT22;11070;51.336;12.340;2022-09-09T04:28:26;14.00;99.90
2062;DHT22;11070;51.336;12.340;2022-09-09T04:31:10;14.00;99.00
2062;DHT22;11070;51.336;12.340;2022-09-09T04:33:36;14.00;93.50
2062;DHT22;11070;51.336;12.340;2022-09-09T04:36:03;14.00;99.90
2062;DHT22;11070;51.336;12.340;2022-09-09T04:38:29;14.00;94.70
2062;DHT22;11070;51.336;12.340;2022-09-09T04:40:55;14.10;79.30
2062;DHT22;11070;51.336;12.340;2022-09-09T04:43:21;14.00;94.40
2062;DHT22;11070;51.336;12.340;2022-09-09T04:45:49;14.00;94.50
2062;DHT22;11070;51.336;12.340;2022-09-09T04:48:15;14.00;98.60
2062;DHT22;11070;51.336;12.340;2022-09-09T04:50:40;14.00;99.90
2062;DHT22;11070;51.336;12.340;2022-09-09T04:53:06;14.00;99.90
2062;DHT22;11070;51.336;12.340;2022-09-09T04:55:33;14.10;99.90
2062;DHT22;11070;51.336;12.340;2022-09-09T04:58:07;14.10;99.90
2062;DHT22;11070;51.336;12.340;2022-09-09T05:00:34;14.10;99.90
2062;DHT22;11070;51.336;12.340;2022-09-09T05:03:04;14.20;99.90
2062;DHT22;11070;51.336;12.340;2022-09-09T05:05:31;14.30;79.20
2062;DHT22;11070;51.336;12.340;2022-09-09T05:08:07;14.30;59.40
2062;DHT22;11070;51.336;12.340;2022-09-09T05:10:34;14.40;52.90
2062;DHT22;11070;51.336;12.340;2022-09-09T05:13:01;14.50;44.20
2062;DHT22;11070;51.336;12.340;2022-09-09T05:15:27;14.50;26.50
2062;DHT22;11070;51.336;12.340;2022-09-09T05:17:56;14.60;17.10
2062;DHT22;11070;51.336;12.340;2022-09-09T05:20:22;14.60;11.30
2062;DHT22;11070;51.336;12.340;2022-09-09T05:22:47;14.70;1.00
2062;DHT22;11070;51.336;12.340;2022-09-09T05:25:13;14.80;1.00
2062;DHT22;11070;51.336;12.340;2022-09-09T05:27:39;14.80;1.00
2062;DHT22;11070;51.336;12.340;2022-09-09T05:30:05;14.80;1.00
2062;DHT22;11070;51.336;12.340;2022-09-09T05:32:30;14.90;1.00
2062;DHT22;11070;51.336;12.340;2022-09-09T05:34:59;14.90;1.00
2062;DHT22;11070;51.336;12.340;2022-09-09T05:37:24;15.00;1.00
2062;DHT22;11070;51.336;12.340;2022-09-09T05:39:50;15.00;1.00
2062;DHT22;11070;51.336;12.340;2022-09-09T05:42:16;15.10;1.00
2062;DHT22;11070;51.336;12.340;2022-09-09T05:44:42;15.10;1.00
2062;DHT22;11070;51.336;12.340;2022-09-09T05:47:08;15.20;1.00
2062;DHT22;11070;51.336;12.340;2022-09-09T05:49:34;15.20;1.00
2062;DHT22;11070;51.336;12.340;2022-09-09T05:52:00;15.30;1.00
2062;DHT22;11070;51.336;12.340;2022-09-09T05:54:26;15.30;1.00
2062;DHT22;11070;51.336;12.340;2022-09-09T05:56:51;15.20;1.00
2062;DHT22;11070;51.336;12.340;2022-09-09T05:59:19;15.20;1.00
2062;DHT22;11070;51.336;12.340;2022-09-09T06:01:44;15.30;1.00
2062;DHT22;11070;51.336;12.340;2022-09-09T06:04:10;15.30;1.00
2062;DHT22;11070;51.336;12.340;2022-09-09T06:06:37;15.40;1.00
2062;DHT22;11070;51.336;12.340;2022-09-09T06:09:07;15.40;1.00
2062;DHT22;11070;51.336;12.340;2022-09-09T06:11:39;15.40;1.00
2062;DHT22;11070;51.336;12.340;2022-09-09T06:14:05;15.50;1.00
2062;DHT22;11070;51.336;12.340;2022-09-09T06:16:32;15.60;1.00
2062;DHT22;11070;51.336;12.340;2022-09-09T06:18:59;15.60;1.00
2062;DHT22;11070;51.336;12.340;2022-09-09T06:21:30;15.70;1.00
2062;DHT22;11070;51.336;12.340;2022-09-09T06:23:56;15.80;1.00
2062;DHT22;11070;51.336;12.340;2022-09-09T06:26:24;15.80;99.90
2062;DHT22;11070;51.336;12.340;2022-09-09T06:28:53;15.90;99.90
2062;DHT22;11070;51.336;12.340;2022-09-09T06:31:21;15.90;99.90
2062;DHT22;11070;51.336;12.340;2022-09-09T06:33:48;16.00;99.90
2062;DHT22;11070;51.336;12.340;2022-09-09T06:36:15;16.10;1.00
2062;DHT22;11070;51.336;12.340;2022-09-09T06:38:42;16.00;1.00
2062;DHT22;11070;51.336;12.340;2022-09-09T06:41:09;16.10;1.00
2062;DHT22;11070;51.336;12.340;2022-09-09T06:43:36;16.20;1.00
2062;DHT22;11070;51.336;12.340;2022-09-09T06:46:10;16.30;1.00
2062;DHT22;11070;51.336;12.340;2022-09-09T06:48:36;16.40;99.90
2062;DHT22;11070;51.336;12.340;2022-09-09T06:51:05;16.50;99.90
2062;DHT22;11070;51.336;12.340;2022-09-09T06:53:32;16.50;99.90
2062;DHT22;11070;51.336;12.340;2022-09-09T06:56:02;16.60;99.90
2062;DHT22;11070;51.336;12.340;2022-09-09T06:58:42;16.70;1.00
2062;DHT22;11070;51.336;12.340;2022-09-09T07:01:13;16.80;99.90
2062;DHT22;11070;51.336;12.340;2022-09-09T07:03:40;16.90;1.00
2062;DHT22;11070;51.336;12.340;2022-09-09T07:06:06;17.20;1.00
2062;DHT22;11070;51.336;12.340;2022-09-09T07:08:33;17.50;99.90
2062;DHT22;11070;51.336;12.340;2022-09-09T07:11:07;17.40;1.00
2062;DHT22;11070;51.336;12.340;2022-09-09T07:13:34;17.30;99.90
2062;DHT22;11070;51.336;12.340;2022-09-09T07:16:14;17.40;1.00
2062;DHT22;11070;51.336;12.340;2022-09-09T07:18:41;17.80;99.90
2062;DHT22;11070;51.336;12.340;2022-09-09T07:21:08;18.20;1.00
2062;DHT22;11070;51.336;12.340;2022-09-09T07:23:34;18.80;99.90
2062;DHT22;11070;51.336;12.340;2022-09-09T07:28:36;19.80;1.00
2062;DHT22;11070;51.336;12.340;2022-09-09T07:31:03;19.80;1.00
2062;DHT22;11070;51.336;12.340;2022-09-09T07:33:30;20.10;1.00
2062;DHT22;11070;51.336;12.340;2022-09-09T07:36:07;19.90;1.00
2062;DHT22;11070;51.336;12.340;2022-09-09T07:38:47;20.50;1.00
2062;DHT22;11070;51.336;12.340;2022-09-09T07:41:17;21.10;1.00
2062;DHT22;11070;51.336;12.340;2022-09-09T07:43:44;21.90;1.00
2062;DHT22;11070;51.336;12.340;2022-09-09T07:46:17;21.50;1.00
2062;DHT22;11070;51.336;12.340;2022-09-09T07:48:52;22.10;1.00
2062;DHT22;11070;51.336;12.340;2022-09-09T07:51:28;22.30;1.00
2062;DHT22;11070;51.336;12.340;2022-09-09T07:53:59;22.40;1.00
2062;DHT22;11070;51.336;12.340;2022-09-09T07:56:26;22.70;1.00
2062;DHT22;11070;51.336;12.340;2022-09-09T07:58:54;22.90;1.00
2062;DHT22;11070;51.336;12.340;2022-09-09T08:01:43;22.90;99.90
2062;DHT22;11070;51.336;12.340;2022-09-09T08:04:12;22.40;1.00
2062;DHT22;11070;51.336;12.340;2022-09-09T08:06:45;22.20;1.00
2062;DHT22;11070;51.336;12.340;2022-09-09T08:09:11;21.60;1.00
2062;DHT22;11070;51.336;12.340;2022-09-09T08:11:38;22.10;1.00
2062;DHT22;11070;51.336;12.340;2022-09-09T08:14:05;22.00;1.00
2062;DHT22;11070;51.336;12.340;2022-09-09T08:16:34;22.40;1.00
2062;DHT22;11070;51.336;12.340;2022-09-09T08:19:02;22.10;1.00
2062;DHT22;11070;51.336;12.340;2022-09-09T08:21:30;22.20;1.00
2062;DHT22;11070;51.336;12.340;2022-09-09T08:23:58;21.90;1.00
2062;DHT22;11070;51.336;12.340;2022-09-09T08:26:26;21.30;1.00
2062;DHT22;11070;51.336;12.340;2022-09-09T08:28:54;20.60;1.00
2062;DHT22;11070;51.336;12.340;2022-09-09T08:33:58;21.40;1.00
2062;DHT22;11070;51.336;12.340;2022-09-09T08:36:30;23.00;1.00
2062;DHT22;11070;51.336;12.340;2022-09-09T08:38:57;24.60;1.00
2062;DHT22;11070;51.336;12.340;2022-09-09T08:41:45;25.40;99.90
2062;DHT22;11070;51.336;12.340;2022-09-09T08:50:20;25.00;99.90
2062;DHT22;11070;51.336;12.340;2022-09-09T08:55:48;25.20;99.90
2062;DHT22;11070;51.336;12.340;2022-09-09T08:58:35;26.40;99.90
2062;DHT22;11070;51.336;12.340;2022-09-09T09:03:48;26.40;99.90
2062;DHT22;11070;51.336;12.340;2022-09-09T09:11:51;27.20;99.90
2062;DHT22;11070;51.336;12.340;2022-09-09T09:14:22;27.20;99.90
2062;DHT22;11070;51.336;12.340;2022-09-09T09:17:05;27.30;99.90
2062;DHT22;11070;51.336;12.340;2022-09-09T09:19:35;26.70;99.90
2062;DHT22;11070;51.336;12.340;2022-09-09T09:25:18;27.00;99.90
2062;DHT22;11070;51.336;12.340;2022-09-09T09:28:11;26.80;99.90
2062;DHT22;11070;51.336;12.340;2022-09-09T09:30:47;25.10;99.90
2062;DHT22;11070;51.336;12.340;2022-09-09T09:33:20;25.10;99.90
2062;DHT22;11070;51.336;12.340;2022-09-09T09:35:49;26.90;99.90
2062;DHT22;11070;51.336;12.340;2022-09-09T09:38:21;26.50;99.90
2062;DHT22;11070;51.336;12.340;2022-09-09T09:41:06;25.70;99.90
2062;DHT22;11070;51.336;12.340;2022-09-09T09:43:37;25.10;99.90
2062;DHT22;11070;51.336;12.340;2022-09-09T09:46:05;24.60;99.90
2062;DHT22;11070;51.336;12.340;2022-09-09T09:48:31;24.70;99.90
2062;DHT22;11070;51.336;12.340;2022-09-09T09:51:09;24.20;99.90
2062;DHT22;11070;51.336;12.340;2022-09-09T09:53:38;23.60;99.90
2062;DHT22;11070;51.336;12.340;2022-09-09T09:56:07;23.40;99.90
2062;DHT22;11070;51.336;12.340;2022-09-09T10:01:28;25.10;99.90
2062;DHT22;11070;51.336;12.340;2022-09-09T10:04:02;25.00;99.90
2062;DHT22;11070;51.336;12.340;2022-09-09T10:06:36;25.00;99.90
2062;DHT22;11070;51.336;12.340;2022-09-09T10:09:17;24.70;99.90
2062;DHT22;11070;51.336;12.340;2022-09-09T10:19:42;23.10;99.90
2062;DHT22;11070;51.336;12.340;2022-09-09T10:22:32;22.90;99.90
2062;DHT22;11070;51.336;12.340;2022-09-09T10:33:49;27.10;99.90
2062;DHT22;11070;51.336;12.340;2022-09-09T10:36:25;28.10;99.90
2062;DHT22;11070;51.336;12.340;2022-09-09T10:39:06;28.80;99.90
2062;DHT22;11070;51.336;12.340;2022-09-09T10:41:49;26.40;99.90
2062;DHT22;11070;51.336;12.340;2022-09-09T10:44:31;23.90;99.90
2062;DHT22;11070;51.336;12.340;2022-09-09T10:47:26;22.80;99.90
2062;DHT22;11070;51.336;12.340;2022-09-09T10:53:08;22.70;99.90
2062;DHT22;11070;51.336;12.340;2022-09-09T10:55:42;22.60;99.90
2062;DHT22;11070;51.336;12.340;2022-09-09T10:58:19;23.70;99.90
2062;DHT22;11070;51.336;12.340;2022-09-09T11:00:55;25.20;99.90
2062;DHT22;11070;51.336;12.340;2022-09-09T11:03:26;25.30;99.90
2062;DHT22;11070;51.336;12.340;2022-09-09T11:05:58;24.50;99.90
2062;DHT22;11070;51.336;12.340;2022-09-09T11:08:29;24.00;99.90
2062;DHT22;11070;51.336;12.340;2022-09-09T11:11:25;23.60;99.90
2062;DHT22;11070;51.336;12.340;2022-09-09T11:16:30;24.00;99.90
2062;DHT22;11070;51.336;12.340;2022-09-09T11:19:10;23.60;99.90
2062;DHT22;11070;51.336;12.340;2022-09-09T11:21:48;22.80;99.90
2062;DHT22;11070;51.336;12.340;2022-09-09T11:24:33;22.90;99.90
2062;DHT22;11070;51.336;12.340;2022-09-09T11:27:10;23.50;99.90
2062;DHT22;11070;51.336;12.340;2022-09-09T11:40:21;27.70;99.90
2062;DHT22;11070;51.336;12.340;2022-09-09T11:42:49;27.00;99.90
2062;DHT22;11070;51.336;12.340;2022-09-09T11:45:26;26.20;99.90
2062;DHT22;11070;51.336;12.340;2022-09-09T11:47:58;25.90;99.90
2062;DHT22;11070;51.336;12.340;2022-09-09T11:52:49;26.50;99.90
2062;DHT22;11070;51.336;12.340;2022-09-09T11:55:25;26.20;99.90
2062;DHT22;11070;51.336;12.340;2022-09-09T11:58:06;26.20;99.90
2062;DHT22;11070;51.336;12.340;2022-09-09T12:00:42;25.90;99.90
2062;DHT22;11070;51.336;12.340;2022-09-09T12:03:32;26.40;99.90
2062;DHT22;11070;51.336;12.340;2022-09-09T12:06:08;26.00;99.90
2062;DHT22;11070;51.336;12.340;2022-09-09T12:08:35;26.70;99.90
2062;DHT22;11070;51.336;12.340;2022-09-09T12:11:02;27.30;99.90
2062;DHT22;11070;51.336;12.340;2022-09-09T12:13:29;26.90;99.90
2062;DHT22;11070;51.336;12.340;2022-09-09T12:15:58;27.20;99.90
2062;DHT22;11070;51.336;12.340;2022-09-09T12:18:31;27.00;99.90
2062;DHT22;11070;51.336;12.340;2022-09-09T12:26:41;26.30;99.90
2062;DHT22;11070;51.336;12.340;2022-09-09T12:31:59;27.40;99.90
2062;DHT22;11070;51.336;12.340;2022-09-09T12:34:34;27.70;99.90
2062;DHT22;11070;51.336;12.340;2022-09-09T12:37:18;27.70;99.90
2062;DHT22;11070;51.336;12.340;2022-09-09T12:42:44;27.00;99.90
2062;DHT22;11070;51.336;12.340;2022-09-09T12:45:24;26.60;99.90
2062;DHT22;11070;51.336;12.340;2022-09-09T12:47:59;25.90;99.90
2062;DHT22;11070;51.336;12.340;2022-09-09T12:50:29;25.50;99.90
2062;DHT22;11070;51.336;12.340;2022-09-09T12:53:08;26.20;99.90
2062;DHT22;11070;51.336;12.340;2022-09-09T12:55:37;26.70;99.90
2062;DHT22;11070;51.336;12.340;2022-09-09T12:58:05;26.60;99.90
2062;DHT22;11070;51.336;12.340;2022-09-09T13:00:33;27.20;99.90
2062;DHT22;11070;51.336;12.340;2022-09-09T13:03:01;27.20;99.90
2062;DHT22;11070;51.336;12.340;2022-09-09T13:05:35;27.20;99.90
2062;DHT22;11070;51.336;12.340;2022-09-09T13:08:06;26.90;99.90
2062;DHT22;11070;51.336;12.340;2022-09-09T13:10:57;27.90;99.90
2062;DHT22;11070;51.336;12.340;2022-09-09T13:13:28;27.60;99.90
2062;DHT22;11070;51.336;12.340;2022-09-09T13:15:59;27.00;99.90
2062;DHT22;11070;51.336;12.340;2022-09-09T13:18:37;26.50;99.90
2062;DHT22;11070;51.336;12.340;2022-09-09T13:21:05;25.80;99.90
2062;DHT22;11070;51.336;12.340;2022-09-09T13:23:33;24.70;99.90
2062;DHT22;11070;51.336;12.340;2022-09-09T13:26:03;24.10;99.90
2062;DHT22;11070;51.336;12.340;2022-09-09T13:28:30;24.20;99.90
2062;DHT22;11070;51.336;12.340;2022-09-09T13:31:00;24.20;99.90
2062;DHT22;11070;51.336;12.340;2022-09-09T13:33:37;24.00;99.90
2062;DHT22;11070;51.336;12.340;2022-09-09T13:38:32;23.50;99.90
2062;DHT22;11070;51.336;12.340;2022-09-09T13:43:29;23.40;99.90
2062;DHT22;11070;51.336;12.340;2022-09-09T13:46:01;23.20;99.90
2062;DHT22;11070;51.336;12.340;2022-09-09T13:48:27;23.10;99.90
2062;DHT22;11070;51.336;12.340;2022-09-09T13:51:02;23.20;99.90
2062;DHT22;11070;51.336;12.340;2022-09-09T13:53:30;23.20;99.90
2062;DHT22;11070;51.336;12.340;2022-09-09T13:55:56;23.20;99.90
2062;DHT22;11070;51.336;12.340;2022-09-09T13:58:22;23.10;99.90
2062;DHT22;11070;51.336;12.340;2022-09-09T14:00:48;22.50;99.90
2062;DHT22;11070;51.336;12.340;2022-09-09T14:03:15;21.70;99.90
2062;DHT22;11070;51.336;12.340;2022-09-09T14:05:41;20.80;99.90
2062;DHT22;11070;51.336;12.340;2022-09-09T14:08:22;20.40;99.90
2062;DHT22;11070;51.336;12.340;2022-09-09T14:10:48;20.30;99.90
2062;DHT22;11070;51.336;12.340;2022-09-09T14:13:14;20.10;99.90
2062;DHT22;11070;51.336;12.340;2022-09-09T14:15:40;20.00;99.90
2062;DHT22;11070;51.336;12.340;2022-09-09T14:18:10;20.00;99.90
2062;DHT22;11070;51.336;12.340;2022-09-09T14:20:37;20.20;99.90
2062;DHT22;11070;51.336;12.340;2022-09-09T14:23:02;20.20;99.90
2062;DHT22;11070;51.336;12.340;2022-09-09T14:25:28;20.20;99.90
2062;DHT22;11070;51.336;12.340;2022-09-09T14:27:54;20.30;99.90
2062;DHT22;11070;51.336;12.340;2022-09-09T14:30:21;20.30;99.90
2062;DHT22;11070;51.336;12.340;2022-09-09T14:32:47;20.50;99.90
2062;DHT22;11070;51.336;12.340;2022-09-09T14:35:12;20.60;99.90
2062;DHT22;11070;51.336;12.340;2022-09-09T14:37:38;20.80;99.90
2062;DHT22;11070;51.336;12.340;2022-09-09T14:40:05;20.90;99.90
2062;DHT22;11070;51.336;12.340;2022-09-09T14:42:30;20.90;99.90
2062;DHT22;11070;51.336;12.340;2022-09-09T14:44:56;21.10;99.90
2062;DHT22;11070;51.336;12.340;2022-09-09T14:47:22;21.10;99.90
2062;DHT22;11070;51.336;12.340;2022-09-09T14:49:47;21.20;99.90
2062;DHT22;11070;51.336;12.340;2022-09-09T14:52:15;21.40;99.90
2062;DHT22;11070;51.336;12.340;2022-09-09T14:54:41;21.50;99.90
2062;DHT22;11070;51.336;12.340;2022-09-09T14:57:07;21.60;99.90
2062;DHT22;11070;51.336;12.340;2022-09-09T14:59:33;21.70;99.90
2062;DHT22;11070;51.336;12.340;2022-09-09T15:01:59;22.20;99.90
2062;DHT22;11070;51.336;12.340;2022-09-09T15:04:29;23.10;99.90
2062;DHT22;11070;51.336;12.340;2022-09-09T15:06:55;23.90;99.90
2062;DHT22;11070;51.336;12.340;2022-09-09T15:09:20;24.30;99.90
2062;DHT22;11070;51.336;12.340;2022-09-09T15:11:46;24.50;99.90
2062;DHT22;11070;51.336;12.340;2022-09-09T15:14:12;24.50;99.90
2062;DHT22;11070;51.336;12.340;2022-09-09T15:16:39;24.60;99.90
2062;DHT22;11070;51.336;12.340;2022-09-09T15:19:05;24.80;99.90
2062;DHT22;11070;51.336;12.340;2022-09-09T15:21:33;24.10;99.90
2062;DHT22;11070;51.336;12.340;2022-09-09T15:23:59;23.70;99.90
2062;DHT22;11070;51.336;12.340;2022-09-09T15:26:26;23.70;99.90
2062;DHT22;11070;51.336;12.340;2022-09-09T15:28:52;23.80;99.90
2062;DHT22;11070;51.336;12.340;2022-09-09T15:31:21;24.00;99.90
2062;DHT22;11070;51.336;12.340;2022-09-09T15:33:51;24.20;99.90
2062;DHT22;11070;51.336;12.340;2022-09-09T15:36:20;24.30;99.90
2062;DHT22;11070;51.336;12.340;2022-09-09T15:38:47;24.20;99.90
2062;DHT22;11070;51.336;12.340;2022-09-09T15:41:13;24.30;99.90
2062;DHT22;11070;51.336;12.340;2022-09-09T15:43:42;24.10;99.90
2062;DHT22;11070;51.336;12.340;2022-09-09T15:46:25;23.80;99.90
2062;DHT22;11070;51.336;12.340;2022-09-09T15:48:54;23.50;99.90
2062;DHT22;11070;51.336;12.340;2022-09-09T15:51:20;23.40;99.90
2062;DHT22;11070;51.336;12.340;2022-09-09T15:53:47;23.30;99.90
2062;DHT22;11070;51.336;12.340;2022-09-09T15:56:13;23.20;99.90
2062;DHT22;11070;51.336;12.340;2022-09-09T15:58:38;23.10;99.90
2062;DHT22;11070;51.336;12.340;2022-09-09T16:01:08;23.20;99.90
2062;DHT22;11070;51.336;12.340;2022-09-09T16:03:39;23.20;99.90
2062;DHT22;11070;51.336;12.340;2022-09-09T16:06:06;23.00;99.90
2062;DHT22;11070;51.336;12.340;2022-09-09T16:08:37;23.10;99.90
2062;DHT22;11070;51.336;12.340;2022-09-09T16:11:08;23.00;99.90
2062;DHT22;11070;51.336;12.340;2022-09-09T16:13:38;23.00;99.90
2062;DHT22;11070;51.336;12.340;2022-09-09T16:16:08;22.90;99.90
2062;DHT22;11070;51.336;12.340;2022-09-09T16:18:36;22.90;99.90
2062;DHT22;11070;51.336;12.340;2022-09-09T16:21:03;22.80;99.90
2062;DHT22;11070;51.336;12.340;2022-09-09T16:23:43;22.80;99.90
2062;DHT22;11070;51.336;12.340;2022-09-09T16:26:12;22.80;99.90
2062;DHT22;11070;51.336;12.340;2022-09-09T16:28:49;22.50;99.90
2062;DHT22;11070;51.336;12.340;2022-09-09T16:31:19;22.30;99.90
2062;DHT22;11070;51.336;12.340;2022-09-09T16:33:46;22.10;99.90
2062;DHT22;11070;51.336;12.340;2022-09-09T16:36:20;22.00;99.90
2062;DHT22;11070;51.336;12.340;2022-09-09T16:38:46;21.90;99.90
2062;DHT22;11070;51.336;12.340;2022-09-09T16:41:14;21.80;99.90
2062;DHT22;11070;51.336;12.340;2022-09-09T16:43:40;21.80;99.90
2062;DHT22;11070;51.336;12.340;2022-09-09T16:46:17;21.70;99.90
2062;DHT22;11070;51.336;12.340;2022-09-09T16:48:44;21.60;99.90
2062;DHT22;11070;51.336;12.340;2022-09-09T16:51:19;21.50;99.90
2062;DHT22;11070;51.336;12.340;2022-09-09T16:53:46;21.50;99.90
2062;DHT22;11070;51.336;12.340;2022-09-09T16:56:20;21.40;99.90
2062;DHT22;11070;51.336;12.340;2022-09-09T16:58:53;21.30;99.90
2062;DHT22;11070;51.336;12.340;2022-09-09T17:01:27;21.20;99.90
2062;DHT22;11070;51.336;12.340;2022-09-09T17:04:00;21.10;99.90
2062;DHT22;11070;51.336;12.340;2022-09-09T17:06:30;21.10;99.90
2062;DHT22;11070;51.336;12.340;2022-09-09T17:08:59;21.00;99.90
2062;DHT22;11070;51.336;12.340;2022-09-09T17:11:29;21.00;99.90
2062;DHT22;11070;51.336;12.340;2022-09-09T17:13:57;20.90;99.90
2062;DHT22;11070;51.336;12.340;2022-09-09T17:16:26;20.80;99.90
2062;DHT22;11070;51.336;12.340;2022-09-09T17:18:54;20.80;99.90
2062;DHT22;11070;51.336;12.340;2022-09-09T17:21:26;20.70;99.90
2062;DHT22;11070;51.336;12.340;2022-09-09T17:23:53;20.70;99.90
2062;DHT22;11070;51.336;12.340;2022-09-09T17:26:22;20.60;99.90
2062;DHT22;11070;51.336;12.340;2022-09-09T17:28:47;20.50;99.90
2062;DHT22;11070;51.336;12.340;2022-09-09T17:31:17;20.50;99.90
2062;DHT22;11070;51.336;12.340;2022-09-09T17:33:46;20.40;99.90
2062;DHT22;11070;51.336;12.340;2022-09-09T17:36:24;20.30;99.90
2062;DHT22;11070;51.336;12.340;2022-09-09T17:38:50;20.20;99.90
2062;DHT22;11070;51.336;12.340;2022-09-09T17:41:20;20.10;99.90
2062;DHT22;11070;51.336;12.340;2022-09-09T17:43:47;20.00;99.90
2062;DHT22;11070;51.336;12.340;2022-09-09T17:46:16;19.90;99.90
2062;DHT22;11070;51.336;12.340;2022-09-09T17:48:43;19.80;99.90
2062;DHT22;11070;51.336;12.340;2022-09-09T17:51:13;19.70;99.90